Time;durP1;ratioP1;P1;durP2;ratioP2;P2;SDS_P1;SDS_P2;PMS_P1;PMS_P2;Temp;Humidity;BMP_temperature;BMP_pressure;BME280_temperature;BME280_humidity;BME280_pressure;Samples;Min_cycle;Max_cycle;Signal;HPM_P1;HPM_P2
2021/12/27 00:00:33;;;;;;;17.27;9.93;;;2.80;99.90;;;;;;5088196;28;20044;-78
2021/12/27 00:03:01;;;;;;;27.95;13.30;;;1.50;99.90;;;;;;5068031;28;20110;-78
2021/12/27 00:05:28;;;;;;;20.63;11.80;;;2.50;99.90;;;;;;5067898;28;20084;-78
2021/12/27 00:07:54;;;;;;;20.25;11.35;;;1.70;99.90;;;;;;5085287;28;20061;-78
2021/12/27 00:10:22;;;;;;;16.23;9.80;;;2.20;99.90;;;;;;5087916;28;20045;-78
2021/12/27 00:12:49;;;;;;;17.00;10.00;;;1.90;99.90;;;;;;5070818;28;20041;-79
2021/12/27 00:15:15;;;;;;;23.08;11.63;;;1.30;99.90;;;;;;5051261;28;20041;-78
2021/12/27 00:17:42;;;;;;;22.15;11.45;;;1.30;99.90;;;;;;5101562;28;20097;-78
2021/12/27 00:20:10;;;;;;;23.95;9.85;;;1.40;99.90;;;;;;5059592;28;20393;-78
2021/12/27 00:22:36;;;;;;;20.65;11.63;;;1.50;99.90;;;;;;5054290;28;20045;-78
2021/12/27 00:25:03;;;;;;;19.20;11.32;;;3.00;99.90;;;;;;5071091;28;20390;-78
2021/12/27 00:27:29;;;;;;;21.77;12.45;;;1.60;99.90;;;;;;5037452;28;20076;-78
2021/12/27 00:29:55;;;;;;;27.20;14.23;;;1.50;99.90;;;;;;5067994;28;20337;-78
2021/12/27 00:32:20;;;;;;;18.58;10.57;;;1.50;99.90;;;;;;5057262;28;20037;-78
2021/12/27 00:34:46;;;;;;;18.75;10.77;;;1.40;99.90;;;;;;5072839;28;20392;-78
2021/12/27 00:37:12;;;;;;;25.15;14.30;;;1.40;99.90;;;;;;5071996;28;20229;-78
2021/12/27 00:39:38;;;;;;;16.77;9.65;;;1.40;99.90;;;;;;5065699;28;20043;-78
2021/12/27 00:42:05;;;;;;;18.33;11.38;;;1.40;99.90;;;;;;5073936;28;20076;-78
2021/12/27 00:44:31;;;;;;;21.02;10.80;;;1.40;99.90;;;;;;5074082;28;20177;-78
2021/12/27 00:46:56;;;;;;;20.65;11.55;;;1.40;99.90;;;;;;5057276;28;20164;-78
2021/12/27 00:49:22;;;;;;;20.63;11.98;;;1.50;99.90;;;;;;5074235;28;20457;-78
2021/12/27 00:51:48;;;;;;;30.70;12.63;;;1.50;99.90;;;;;;5064548;28;20120;-78
2021/12/27 00:54:14;;;;;;;22.00;11.63;;;1.50;99.90;;;;;;5057154;28;20131;-79
2021/12/27 00:56:40;;;;;;;22.45;12.43;;;1.50;99.90;;;;;;5072996;28;20037;-78
2021/12/27 00:59:06;;;;;;;19.17;11.30;;;1.50;99.90;;;;;;5069743;28;20044;-78
2021/12/27 01:01:32;;;;;;;20.52;12.52;;;1.50;99.90;;;;;;5053762;28;20392;-79
2021/12/27 01:03:59;;;;;;;24.95;13.38;;;1.50;99.90;;;;;;5069733;28;20146;-78
2021/12/27 01:06:26;;;;;;;17.20;10.40;;;1.60;99.90;;;;;;5067822;28;20044;-79
2021/12/27 01:08:52;;;;;;;21.98;11.95;;;1.60;99.90;;;;;;5067967;28;20471;-78
2021/12/27 01:11:35;;;;;;;24.05;11.98;;;1.60;99.90;;;;;;5069123;28;20084;-79
2021/12/27 01:14:08;;;;;;;18.42;11.63;;;3.20;99.90;;;;;;5069061;28;20044;-78
2021/12/27 01:16:34;;;;;;;18.73;11.05;;;1.80;99.90;;;;;;5068564;28;20140;-79
2021/12/27 01:19:00;;;;;;;20.23;11.10;;;2.20;99.90;;;;;;5084392;28;20105;-78
2021/12/27 01:21:26;;;;;;;23.30;12.40;;;1.50;99.90;;;;;;5069251;28;20059;-79
2021/12/27 01:23:53;;;;;;;21.63;12.05;;;2.80;99.90;;;;;;5067680;28;20519;-78
2021/12/27 01:26:20;;;;;;;23.40;12.52;;;3.40;99.90;;;;;;5065021;28;20037;-78
2021/12/27 01:28:45;;;;;;;23.42;11.90;;;1.70;99.90;;;;;;5070247;28;20071;-79
2021/12/27 01:31:11;;;;;;;21.02;11.85;;;1.60;99.90;;;;;;5052997;28;20040;-78
2021/12/27 01:33:38;;;;;;;25.27;12.40;;;1.70;99.90;;;;;;5066977;28;20370;-78
2021/12/27 01:36:05;;;;;;;22.55;13.52;;;1.70;99.90;;;;;;5061826;28;20053;-78
2021/12/27 01:38:36;;;;;;;21.85;12.45;;;1.70;99.90;;;;;;5051296;28;20052;-79
2021/12/27 01:41:03;;;;;;;21.98;11.45;;;1.80;99.90;;;;;;5069027;28;20063;-79
2021/12/27 01:43:31;;;;;;;22.25;11.80;;;3.20;99.90;;;;;;5069730;28;20081;-78
2021/12/27 01:46:00;;;;;;;22.30;11.93;;;1.80;99.90;;;;;;5052749;28;20059;-79
2021/12/27 01:48:32;;;;;;;26.27;11.55;;;1.70;99.90;;;;;;5069899;28;20189;-78
2021/12/27 01:50:59;;;;;;;21.85;13.40;;;1.70;99.90;;;;;;5068378;28;20063;-80
2021/12/27 01:53:28;;;;;;;21.63;11.00;;;1.80;99.90;;;;;;5062058;28;20378;-78
2021/12/27 01:55:55;;;;;;;21.60;12.27;;;1.80;99.90;;;;;;5066597;28;20515;-78
2021/12/27 01:58:22;;;;;;;21.40;10.55;;;1.70;99.90;;;;;;5065894;28;20028;-78
2021/12/27 02:00:52;;;;;;;25.35;13.98;;;1.70;99.90;;;;;;5069663;28;20041;-79
2021/12/27 02:03:21;;;;;;;22.58;11.88;;;1.90;99.90;;;;;;5084326;28;20037;-78
2021/12/27 02:05:46;;;;;;;18.95;10.70;;;1.80;99.90;;;;;;5070148;28;20052;-78
2021/12/27 02:08:12;;;;;;;26.35;14.48;;;1.90;99.90;;;;;;5069001;28;20462;-79
2021/12/27 02:10:39;;;;;;;17.13;10.43;;;3.80;99.90;;;;;;5068993;28;20111;-78
2021/12/27 02:13:05;;;;;;;18.20;10.20;;;1.80;99.90;;;;;;5065045;28;20041;-79
2021/12/27 02:15:33;;;;;;;21.40;11.55;;;1.90;99.90;;;;;;5053067;28;20052;-79
2021/12/27 02:17:59;;;;;;;20.75;10.60;;;1.90;99.90;;;;;;5067649;28;20036;-79
2021/12/27 02:20:28;;;;;;;22.73;12.55;;;3.90;99.90;;;;;;5065749;28;20044;-79
2021/12/27 02:22:59;;;;;;;20.77;11.43;;;2.10;99.90;;;;;;5063060;28;20464;-78
2021/12/27 02:25:25;;;;;;;21.00;12.10;;;2.00;99.90;;;;;;5052060;28;20036;-79
2021/12/27 02:27:51;;;;;;;23.77;13.65;;;3.70;99.90;;;;;;5066685;28;20590;-78
2021/12/27 02:30:17;;;;;;;23.00;13.45;;;2.00;99.90;;;;;;5053322;28;20080;-78
2021/12/27 02:32:45;;;;;;;20.73;11.80;;;2.00;99.90;;;;;;5069464;28;20399;-78
2021/12/27 02:35:15;;;;;;;23.50;13.18;;;2.00;99.90;;;;;;5069620;28;20044;-78
2021/12/27 02:37:41;;;;;;;24.48;12.80;;;1.80;99.90;;;;;;5068604;28;20041;-78
2021/12/27 02:40:08;;;;;;;25.92;10.80;;;1.90;99.90;;;;;;5069939;28;20036;-78
2021/12/27 02:42:33;;;;;;;23.70;12.63;;;1.80;99.90;;;;;;5067428;28;20103;-78
2021/12/27 02:44:59;;;;;;;23.73;13.48;;;1.90;99.90;;;;;;5064423;28;20480;-79
2021/12/27 02:47:24;;;;;;;23.60;13.63;;;3.40;99.90;;;;;;5069120;28;20062;-78
2021/12/27 02:49:50;;;;;;;34.53;14.48;;;1.90;99.90;;;;;;5069514;28;20040;-78
2021/12/27 02:52:16;;;;;;;25.65;14.13;;;3.10;99.90;;;;;;5068846;28;20068;-78
2021/12/27 02:54:42;;;;;;;25.98;15.13;;;1.70;99.90;;;;;;5068191;28;20375;-78
2021/12/27 02:57:09;;;;;;;22.90;12.00;;;1.80;99.90;;;;;;5068675;28;20141;-79
2021/12/27 02:59:35;;;;;;;27.20;15.80;;;2.00;99.90;;;;;;5067816;28;20040;-78
2021/12/27 03:02:00;;;;;;;27.63;12.15;;;3.10;99.90;;;;;;5069517;28;20044;-79
2021/12/27 03:04:27;;;;;;;35.05;15.80;;;4.00;99.90;;;;;;5069147;28;20496;-78
2021/12/27 03:06:52;;;;;;;23.45;12.70;;;1.80;99.90;;;;;;5067799;28;20420;-79
2021/12/27 03:09:18;;;;;;;21.73;12.95;;;1.90;99.90;;;;;;5068420;28;20045;-78
2021/12/27 03:11:44;;;;;;;22.92;12.25;;;1.80;99.90;;;;;;5066877;28;20488;-79
2021/12/27 03:14:10;;;;;;;24.70;14.40;;;1.80;99.90;;;;;;5068786;28;20048;-78
2021/12/27 03:16:35;;;;;;;27.23;16.33;;;0.70;99.90;;;;;;5069826;28;20496;-79
2021/12/27 03:19:01;;;;;;;20.05;11.32;;;2.00;99.90;;;;;;5065393;28;20059;-79
2021/12/27 03:21:28;;;;;;;23.10;13.43;;;2.80;99.90;;;;;;5052205;28;20044;-79
2021/12/27 03:23:53;;;;;;;18.50;12.05;;;1.90;99.90;;;;;;5069231;28;20059;-78
2021/12/27 03:26:19;;;;;;;24.77;13.75;;;2.10;99.90;;;;;;5066903;28;20496;-78
2021/12/27 03:28:45;;;;;;;24.90;13.85;;;2.00;99.90;;;;;;5068751;28;20377;-79
2021/12/27 03:31:11;;;;;;;34.28;15.55;;;1.90;99.90;;;;;;5067833;28;20123;-78
2021/12/27 03:33:37;;;;;;;25.08;13.73;;;1.90;99.90;;;;;;5068259;28;20037;-79
2021/12/27 03:36:05;;;;;;;21.27;12.07;;;2.00;99.90;;;;;;5050969;28;20055;-78
2021/12/27 03:38:35;;;;;;;27.13;15.10;;;2.10;99.90;;;;;;5068844;28;20048;-78
2021/12/27 03:41:03;;;;;;;20.85;13.23;;;2.30;99.90;;;;;;5068689;28;20068;-79
2021/12/27 03:43:28;;;;;;;24.20;13.18;;;1.90;99.90;;;;;;5067504;28;20147;-79
2021/12/27 03:45:54;;;;;;;27.92;14.00;;;1.80;99.90;;;;;;5068208;28;20115;-79
2021/12/27 03:48:20;;;;;;;25.42;12.55;;;1.80;99.90;;;;;;5068675;28;20033;-78
2021/12/27 03:50:45;;;;;;;27.50;13.30;;;1.90;99.90;;;;;;5069604;28;20036;-78
2021/12/27 03:53:11;;;;;;;31.42;16.10;;;1.70;99.90;;;;;;5067903;28;20061;-78
2021/12/27 03:55:37;;;;;;;26.00;13.73;;;1.90;99.90;;;;;;5071792;28;20060;-79
2021/12/27 03:58:08;;;;;;;32.88;18.48;;;2.00;99.90;;;;;;5072706;28;20100;-78
2021/12/27 04:00:49;;;;;;;30.80;17.95;;;1.90;99.90;;;;;;5069812;28;20445;-78
2021/12/27 04:03:16;;;;;;;35.78;18.70;;;1.90;99.90;;;;;;5070241;28;20353;-78
2021/12/27 04:05:42;;;;;;;32.60;18.15;;;1.90;99.90;;;;;;5054910;28;20120;-79
2021/12/27 04:08:10;;;;;;;31.80;17.58;;;2.20;99.90;;;;;;5070055;28;20063;-79
2021/12/27 04:10:38;;;;;;;33.97;16.33;;;2.20;99.90;;;;;;5073112;28;20047;-79
2021/12/27 04:13:05;;;;;;;23.10;13.93;;;2.20;99.90;;;;;;5072013;28;20055;-78
2021/12/27 04:15:31;;;;;;;23.88;13.70;;;2.20;99.90;;;;;;5071074;28;20048;-78
2021/12/27 04:17:57;;;;;;;30.02;16.92;;;1.80;99.90;;;;;;5069006;28;20036;-79
2021/12/27 04:20:23;;;;;;;22.67;13.02;;;2.20;99.90;;;;;;5064185;28;20036;-79
2021/12/27 04:22:49;;;;;;;25.20;15.25;;;1.90;99.90;;;;;;5070217;28;20048;-78
2021/12/27 04:25:17;;;;;;;37.42;19.10;;;2.20;99.90;;;;;;5069156;28;20056;-78
2021/12/27 04:27:43;;;;;;;31.13;16.60;;;2.00;99.90;;;;;;5069911;28;20040;-78
2021/12/27 04:30:09;;;;;;;27.73;15.10;;;2.20;99.90;;;;;;5071321;28;20098;-79
2021/12/27 04:32:35;;;;;;;26.33;15.43;;;2.20;99.90;;;;;;5072994;28;20042;-78
2021/12/27 04:35:01;;;;;;;42.47;17.92;;;2.00;99.90;;;;;;5071998;28;20415;-78
2021/12/27 04:37:29;;;;;;;27.83;15.60;;;4.00;99.90;;;;;;5068626;28;20041;-79
2021/12/27 04:39:55;;;;;;;33.70;18.50;;;2.10;99.90;;;;;;5071178;28;20493;-79
2021/12/27 04:42:22;;;;;;;29.75;15.73;;;2.30;99.90;;;;;;5069237;28;20043;-79
2021/12/27 04:44:47;;;;;;;31.70;17.45;;;2.00;99.90;;;;;;5070158;28;20041;-79
2021/12/27 04:47:16;;;;;;;23.00;14.32;;;2.30;99.90;;;;;;5071843;28;20411;-79
2021/12/27 04:49:42;;;;;;;27.08;15.02;;;2.10;99.90;;;;;;5054711;28;20059;-78
2021/12/27 04:52:09;;;;;;;25.00;14.10;;;2.30;99.90;;;;;;5066520;28;20089;-79
2021/12/27 04:54:35;;;;;;;36.15;18.35;;;2.30;99.90;;;;;;5054252;28;20441;-79
2021/12/27 04:57:01;;;;;;;31.23;16.50;;;2.10;99.90;;;;;;5071080;28;20406;-79
2021/12/27 04:59:26;;;;;;;33.20;17.20;;;2.50;99.90;;;;;;5069555;28;20045;-80
2021/12/27 05:01:52;;;;;;;33.25;16.85;;;2.20;99.90;;;;;;5069436;28;20094;-79
2021/12/27 05:04:18;;;;;;;33.72;16.65;;;2.30;99.90;;;;;;5069449;28;20123;-80
2021/12/27 05:06:43;;;;;;;33.70;17.33;;;2.40;99.90;;;;;;5086115;28;20513;-79
2021/12/27 05:09:09;;;;;;;30.63;15.02;;;2.30;99.90;;;;;;5068871;28;20051;-79
2021/12/27 05:11:35;;;;;;;35.58;17.58;;;2.10;99.90;;;;;;5069243;28;20045;-79
2021/12/27 05:14:01;;;;;;;41.13;18.40;;;4.00;99.90;;;;;;5053630;28;20396;-79
2021/12/27 05:16:27;;;;;;;54.22;22.80;;;2.40;99.90;;;;;;5069861;28;20041;-79
2021/12/27 05:18:52;;;;;;;42.70;21.42;;;2.20;99.90;;;;;;5071873;28;20041;-79
2021/12/27 05:21:18;;;;;;;39.40;18.58;;;2.20;99.90;;;;;;5068199;28;20075;-79
2021/12/27 05:23:44;;;;;;;49.75;23.05;;;2.40;99.90;;;;;;5058124;28;20044;-79
2021/12/27 05:26:09;;;;;;;51.85;23.20;;;2.30;99.90;;;;;;5068402;28;20036;-78
2021/12/27 05:28:35;;;;;;;35.00;16.45;;;2.50;99.90;;;;;;5070303;28;20040;-78
2021/12/27 05:31:00;;;;;;;44.05;18.20;;;2.40;99.90;;;;;;5070498;28;20048;-78
2021/12/27 05:33:26;;;;;;;54.63;23.95;;;3.10;99.90;;;;;;5070950;28;20424;-79
2021/12/27 05:35:52;;;;;;;46.30;18.90;;;2.50;99.90;;;;;;5065077;28;20403;-79
2021/12/27 05:38:17;;;;;;;30.40;15.60;;;2.30;99.90;;;;;;5053679;28;20041;-79
2021/12/27 05:40:43;;;;;;;53.30;22.75;;;2.50;99.90;;;;;;5070989;28;20040;-79
2021/12/27 05:43:09;;;;;;;46.28;22.05;;;2.30;99.90;;;;;;5053281;28;20048;-80
2021/12/27 05:45:35;;;;;;;40.25;18.98;;;2.30;99.90;;;;;;5068611;28;20067;-79
2021/12/27 05:48:02;;;;;;;49.65;20.23;;;2.50;99.90;;;;;;5069797;28;20044;-79
2021/12/27 05:50:28;;;;;;;33.22;14.73;;;4.30;99.90;;;;;;5070407;28;20542;-79
2021/12/27 05:52:54;;;;;;;36.17;17.80;;;2.20;99.90;;;;;;5070541;28;20048;-80
2021/12/27 05:55:19;;;;;;;54.10;21.92;;;2.50;99.90;;;;;;5083215;28;20128;-79
2021/12/27 05:57:45;;;;;;;31.73;15.77;;;2.60;99.90;;;;;;5069421;28;20489;-79
2021/12/27 06:00:12;;;;;;;241.93;29.17;;;2.60;99.90;;;;;;5067056;28;20677;-79
2021/12/27 06:02:39;;;;;;;41.85;17.73;;;2.60;99.90;;;;;;5070484;28;20093;-79
2021/12/27 06:05:05;;;;;;;41.10;17.23;;;4.50;99.90;;;;;;5069156;28;20056;-80
2021/12/27 06:07:30;;;;;;;49.30;18.67;;;2.40;99.90;;;;;;5069186;28;20051;-80
2021/12/27 06:09:57;;;;;;;40.92;19.15;;;2.40;99.90;;;;;;5066557;28;20028;-80
2021/12/27 06:12:23;;;;;;;52.20;22.77;;;2.30;99.90;;;;;;5068064;28;20128;-80
2021/12/27 06:14:49;;;;;;;51.05;21.02;;;2.60;99.90;;;;;;5067502;28;20036;-79
2021/12/27 06:17:14;;;;;;;67.63;25.05;;;2.60;99.90;;;;;;5069076;28;20413;-79
2021/12/27 06:19:40;;;;;;;54.28;22.55;;;2.30;99.90;;;;;;5051536;28;20047;-80
2021/12/27 06:22:06;;;;;;;50.58;20.10;;;2.50;99.90;;;;;;5064941;28;20447;-80
2021/12/27 06:24:34;;;;;;;52.00;22.10;;;2.50;99.90;;;;;;5070818;28;20056;-80
2021/12/27 06:27:00;;;;;;;55.40;20.50;;;4.40;99.90;;;;;;5066033;28;20052;-79
2021/12/27 06:29:26;;;;;;;31.50;16.08;;;2.60;99.90;;;;;;5069190;28;20046;-82
2021/12/27 06:31:51;;;;;;;35.72;16.48;;;4.50;99.90;;;;;;5064580;28;20087;-79
2021/12/27 06:34:17;;;;;;;60.85;24.92;;;2.50;99.90;;;;;;5048770;28;20101;-79
2021/12/27 06:36:43;;;;;;;71.93;25.88;;;2.70;99.90;;;;;;5061259;28;20090;-79
2021/12/27 06:39:09;;;;;;;86.20;27.50;;;3.70;99.90;;;;;;5068078;28;20068;-79
2021/12/27 06:41:35;;;;;;;84.78;28.88;;;2.70;99.90;;;;;;5068426;28;20048;-79
2021/12/27 06:44:01;;;;;;;71.50;25.90;;;2.60;99.90;;;;;;5063834;28;20128;-79
2021/12/27 06:46:27;;;;;;;75.60;25.85;;;2.80;99.90;;;;;;5068017;28;20052;-80
2021/12/27 06:48:53;;;;;;;44.78;18.30;;;2.80;99.90;;;;;;5081981;28;20039;-79
2021/12/27 06:51:19;;;;;;;49.58;20.40;;;3.00;99.90;;;;;;5068421;28;20375;-80
2021/12/27 06:53:44;;;;;;;54.58;18.63;;;2.80;99.90;;;;;;5068067;28;20040;-79
2021/12/27 06:56:10;;;;;;;82.50;24.83;;;2.60;99.90;;;;;;5051113;28;20059;-79
2021/12/27 06:58:36;;;;;;;67.57;21.83;;;3.00;99.90;;;;;;5066160;28;20071;-81
2021/12/27 07:01:03;;;;;;;77.90;24.02;;;3.00;99.90;;;;;;5066386;28;20534;-80
2021/12/27 07:03:28;;;;;;;66.10;20.73;;;2.90;99.90;;;;;;5051044;28;20115;-80
2021/12/27 07:05:54;;;;;;;53.58;18.52;;;2.60;99.90;;;;;;5066334;28;20152;-79
2021/12/27 07:08:22;;;;;;;55.88;20.17;;;2.70;99.90;;;;;;5066333;28;20057;-80
2021/12/27 07:10:49;;;;;;;76.10;23.80;;;3.30;99.90;;;;;;5069267;28;20060;-79
2021/12/27 07:13:15;;;;;;;43.28;18.75;;;2.70;99.90;;;;;;5066929;28;20136;-80
2021/12/27 07:15:41;;;;;;;46.10;19.02;;;4.60;99.90;;;;;;5068381;28;20051;-82
2021/12/27 07:18:09;;;;;;;77.47;25.40;;;4.20;99.90;;;;;;5054438;28;20090;-80
2021/12/27 07:20:36;;;;;;;54.83;21.67;;;4.80;99.90;;;;;;5070988;28;20083;-82
2021/12/27 07:23:03;;;;;;;80.55;24.63;;;2.90;99.90;;;;;;5087607;28;20052;-80
2021/12/27 07:25:28;;;;;;;68.88;22.08;;;4.10;99.90;;;;;;5065479;28;20041;-81
2021/12/27 07:27:54;;;;;;;78.63;24.02;;;2.60;99.90;;;;;;5067181;28;20093;-77
2021/12/27 07:30:20;;;;;;;57.83;19.17;;;2.80;99.90;;;;;;5074915;28;20040;-83
2021/12/27 07:32:45;;;;;;;47.90;19.70;;;3.50;99.90;;;;;;5075229;28;22144;-77
2021/12/27 07:35:11;;;;;;;85.25;24.33;;;2.70;99.90;;;;;;5057383;28;20084;-78
2021/12/27 07:37:37;;;;;;;85.82;23.77;;;2.90;99.90;;;;;;5075830;28;20123;-77
2021/12/27 07:40:04;;;;;;;58.42;18.45;;;2.60;99.90;;;;;;5073644;28;20511;-81
2021/12/27 07:42:30;;;;;;;60.63;21.00;;;3.00;99.90;;;;;;5069230;28;20496;-80
2021/12/27 07:44:55;;;;;;;47.30;19.23;;;4.70;99.90;;;;;;5054083;28;20049;-77
2021/12/27 07:47:21;;;;;;;85.22;24.42;;;3.40;99.90;;;;;;5086503;28;20049;-79
2021/12/27 07:49:47;;;;;;;39.33;17.02;;;2.80;99.90;;;;;;5074238;28;20044;-79
2021/12/27 07:52:13;;;;;;;40.28;16.63;;;4.10;99.90;;;;;;5071557;28;20037;-79
2021/12/27 07:54:38;;;;;;;118.78;25.30;;;2.90;99.90;;;;;;5053475;28;20512;-78
2021/12/27 07:57:05;;;;;;;91.05;20.48;;;2.80;99.90;;;;;;5054487;28;20044;-78
2021/12/27 07:59:30;;;;;;;63.33;19.60;;;3.30;99.90;;;;;;5058388;28;20562;-81
2021/12/27 08:01:57;;;;;;;194.07;34.75;;;4.40;99.90;;;;;;5074008;28;20056;-78
2021/12/27 08:04:24;;;;;;;119.97;25.25;;;3.40;99.90;;;;;;5057335;28;20078;-77
2021/12/27 08:06:50;;;;;;;64.68;16.83;;;3.80;99.90;;;;;;5057629;28;20472;-78
2021/12/27 08:09:16;;;;;;;59.47;19.52;;;3.30;99.90;;;;;;5074220;28;20133;-78
2021/12/27 08:11:42;;;;;;;66.90;22.67;;;5.60;99.90;;;;;;5074512;28;20044;-78
2021/12/27 08:14:07;;;;;;;1551.35;91.00;;;3.40;99.90;;;;;;5054186;28;20091;-78
2021/12/27 08:16:33;;;;;;;85.97;22.10;;;3.50;99.90;;;;;;5084175;28;20040;-79
2021/12/27 08:18:59;;;;;;;60.13;18.48;;;3.30;99.90;;;;;;5057399;28;20044;-79
2021/12/27 08:21:26;;;;;;;99.85;23.13;;;5.90;99.90;;;;;;5054214;28;20044;-77
2021/12/27 08:23:53;;;;;;;71.65;18.77;;;5.10;99.90;;;;;;5054689;28;20090;-78
2021/12/27 08:26:19;;;;;;;97.40;21.88;;;3.40;99.90;;;;;;5074034;28;20458;-77
2021/12/27 08:28:47;;;;;;;42.45;16.13;;;5.00;99.90;;;;;;5073325;28;20625;-82
2021/12/27 08:31:12;;;;;;;52.88;18.92;;;4.70;99.90;;;;;;5068307;28;20048;-79
2021/12/27 08:33:38;;;;;;;107.28;22.55;;;3.10;99.90;;;;;;5068898;28;20044;-78
2021/12/27 08:36:05;;;;;;;207.63;29.60;;;3.90;99.90;;;;;;5057329;28;20036;-76
2021/12/27 08:38:31;;;;;;;89.30;21.25;;;3.60;99.90;;;;;;5071720;28;20397;-79
2021/12/27 08:40:57;;;;;;;78.93;20.30;;;3.10;99.90;;;;;;5074951;28;20419;-77
2021/12/27 08:43:23;;;;;;;128.32;23.02;;;5.20;99.90;;;;;;5073803;28;20052;-78
2021/12/27 08:45:50;;;;;;;221.05;30.27;;;3.70;99.90;;;;;;5090885;28;20485;-80
2021/12/27 08:48:16;;;;;;;192.40;28.88;;;3.70;99.90;;;;;;5057195;28;20124;-79
2021/12/27 08:50:42;;;;;;;448.33;43.53;;;3.20;99.90;;;;;;5057373;28;20103;-77
2021/12/27 08:53:08;;;;;;;221.35;28.75;;;4.20;99.90;;;;;;5068300;28;20366;-80
2021/12/27 08:55:36;;;;;;;122.18;24.23;;;3.30;99.90;;;;;;5072830;28;20036;-80
2021/12/27 08:58:03;;;;;;;288.00;31.92;;;6.10;99.90;;;;;;5072589;28;20124;-77
2021/12/27 09:00:29;;;;;;;281.25;31.80;;;3.20;99.90;;;;;;5073019;28;20717;-78
2021/12/27 09:02:55;;;;;;;422.23;43.33;;;3.90;99.90;;;;;;5088991;28;20119;-80
2021/12/27 09:05:21;;;;;;;295.92;30.38;;;5.80;99.90;;;;;;5070399;28;20102;-80
2021/12/27 09:07:46;;;;;;;125.18;23.77;;;5.20;99.90;;;;;;5072685;28;20462;-80
2021/12/27 09:10:13;;;;;;;314.48;34.40;;;;;;;;;;5073194;28;20416;-81
2021/12/27 09:12:40;;;;;;;100.88;18.85;;;4.20;99.90;;;;;;5065531;28;20079;-78
2021/12/27 09:15:08;;;;;;;104.72;22.25;;;3.10;99.90;;;;;;5073525;28;20451;-78
2021/12/27 09:17:34;;;;;;;229.23;30.05;;;3.30;99.90;;;;;;5073197;28;20048;-78
2021/12/27 09:20:00;;;;;;;249.43;31.08;;;5.50;99.90;;;;;;5090059;28;20071;-78
2021/12/27 09:22:25;;;;;;;265.95;30.88;;;4.10;99.90;;;;;;5058124;28;20041;-78
2021/12/27 09:24:51;;;;;;;297.58;34.92;;;4.40;99.90;;;;;;5054853;28;20060;-78
2021/12/27 09:27:17;;;;;;;425.48;43.35;;;3.20;99.90;;;;;;5059817;28;20409;-79
2021/12/27 09:29:44;;;;;;;503.58;48.00;;;6.40;99.90;;;;;;5081811;28;20044;-81
2021/12/27 09:32:11;;;;;;;260.65;34.85;;;3.60;99.90;;;;;;5072590;28;20499;-79
2021/12/27 09:34:38;;;;;;;145.27;26.30;;;5.00;99.90;;;;;;5063554;28;20063;-79
2021/12/27 09:37:04;;;;;;;229.63;29.50;;;4.80;99.90;;;;;;5055596;28;20397;-79
2021/12/27 09:39:29;;;;;;;108.22;19.90;;;4.50;99.90;;;;;;5056026;28;20119;-80
2021/12/27 09:41:56;;;;;;;234.82;28.75;;;6.30;99.90;;;;;;5072952;28;20382;-80
2021/12/27 09:44:21;;;;;;;167.63;28.15;;;3.40;99.90;;;;;;5072034;28;20087;-82
2021/12/27 09:46:47;;;;;;;166.35;26.65;;;5.70;99.90;;;;;;5072732;28;20048;-79
2021/12/27 09:49:17;;;;;;;338.55;37.92;;;4.80;99.90;;;;;;5089773;28;20079;-79
2021/12/27 09:51:44;;;;;;;234.43;30.33;;;3.90;99.90;;;;;;5084543;28;20045;-81
2021/12/27 09:54:11;;;;;;;264.67;36.00;;;4.60;99.90;;;;;;5080206;28;20106;-79
2021/12/27 09:56:37;;;;;;;271.40;32.67;;;5.40;99.90;;;;;;5072418;28;20087;-81
2021/12/27 09:59:03;;;;;;;175.38;24.42;;;3.40;99.90;;;;;;5072715;28;20076;-82
2021/12/27 10:01:29;;;;;;;52.05;15.35;;;6.40;99.90;;;;;;5072050;28;20048;-82
2021/12/27 10:03:57;;;;;;;138.52;25.45;;;3.30;99.90;;;;;;5070570;28;20393;-82
2021/12/27 10:06:25;;;;;;;266.15;33.55;;;5.40;99.90;;;;;;5069784;28;20040;-80
2021/12/27 10:08:53;;;;;;;379.10;39.35;;;3.40;99.90;;;;;;5072217;28;20080;-80
2021/12/27 10:11:21;;;;;;;165.00;28.35;;;3.70;99.90;;;;;;5072434;28;20056;-82
2021/12/27 10:13:58;;;;;;;156.40;26.13;;;5.10;99.90;;;;;;5072717;28;20141;-82
2021/12/27 10:16:25;;;;;;;93.03;22.48;;;4.60;99.90;;;;;;5055371;28;20051;-79
2021/12/27 10:18:54;;;;;;;161.05;26.02;;;4.50;99.90;;;;;;5071772;28;20194;-78
2021/12/27 10:21:20;;;;;;;231.63;30.13;;;6.30;99.90;;;;;;5071879;28;20397;-79
2021/12/27 10:23:46;;;;;;;279.80;32.72;;;6.40;99.90;;;;;;5072110;28;20048;-80
2021/12/27 10:26:17;;;;;;;46.67;15.80;;;3.80;99.90;;;;;;5072124;28;20052;-81
2021/12/27 10:28:43;;;;;;;193.55;28.80;;;3.50;99.90;;;;;;5071058;28;20055;-79
2021/12/27 10:31:09;;;;;;;169.85;29.25;;;3.50;99.90;;;;;;5068137;28;20408;-80
2021/12/27 10:33:36;;;;;;;85.53;19.65;;;4.90;99.90;;;;;;5070442;28;20052;-80
2021/12/27 10:36:02;;;;;;;134.20;23.73;;;5.10;99.90;;;;;;5047143;28;20049;-81
2021/12/27 10:38:32;;;;;;;101.88;20.88;;;3.80;99.90;;;;;;5071795;28;20045;-80
2021/12/27 10:41:03;;;;;;;317.70;34.97;;;5.50;99.90;;;;;;5083608;28;20443;-82
2021/12/27 10:43:38;;;;;;;199.52;28.02;;;5.50;99.90;;;;;;5071456;28;20040;-81
2021/12/27 10:46:06;;;;;;;51.67;17.42;;;6.40;99.90;;;;;;5071606;28;20052;-81
2021/12/27 10:48:35;;;;;;;233.77;29.30;;;5.70;99.90;;;;;;5088358;28;20478;-78
2021/12/27 10:51:02;;;;;;;137.18;21.40;;;4.70;99.90;;;;;;5071348;28;20056;-80
2021/12/27 10:53:48;;;;;;;163.32;23.35;;;4.10;99.90;;;;;;5069874;28;20036;-81
2021/12/27 10:56:17;;;;;;;46.15;15.45;;;4.40;99.90;;;;;;5071769;28;20056;-82
2021/12/27 10:58:50;;;;;;;47.83;16.60;;;5.90;99.90;;;;;;5071711;28;20091;-81
2021/12/27 11:01:18;;;;;;;282.15;33.47;;;5.50;99.90;;;;;;5066864;28;20379;-83
2021/12/27 11:03:45;;;;;;;95.00;21.08;;;3.90;99.90;;;;;;5084615;28;20048;-84
2021/12/27 11:06:14;;;;;;;117.47;24.58;;;5.60;99.90;;;;;;5071513;28;20048;-83
2021/12/27 11:08:44;;;;;;;102.68;21.00;;;5.70;99.90;;;;;;5054904;28;20053;-80
2021/12/27 11:11:10;;;;;;;205.43;30.95;;;5.70;99.90;;;;;;5054580;28;20102;-80
2021/12/27 11:13:36;;;;;;;105.25;22.45;;;8.00;99.90;;;;;;5071334;28;20055;-81
2021/12/27 11:16:02;;;;;;;174.38;26.98;;;5.90;99.90;;;;;;5068456;28;20049;-81
2021/12/27 11:18:28;;;;;;;146.68;27.10;;;4.10;99.90;;;;;;5054761;28;20059;-83
2021/12/27 11:20:58;;;;;;;213.90;28.02;;;5.50;99.90;;;;;;5064208;28;20044;-82
2021/12/27 11:23:26;;;;;;;91.45;21.55;;;3.90;99.90;;;;;;5069033;28;20090;-84
2021/12/27 11:26:00;;;;;;;152.55;23.92;;;6.00;99.90;;;;;;5072162;28;20385;-80
2021/12/27 11:28:33;;;;;;;103.38;19.27;;;5.90;99.90;;;;;;5038156;28;20037;-80
2021/12/27 11:31:05;;;;;;;125.93;21.33;;;5.90;99.90;;;;;;5088328;28;20131;-81
2021/12/27 11:33:31;;;;;;;96.07;19.30;;;5.70;99.90;;;;;;5088093;28;20067;-80
2021/12/27 11:36:01;;;;;;;225.07;28.08;;;4.00;99.90;;;;;;5059811;28;20041;-82
2021/12/27 11:38:36;;;;;;;79.07;17.83;;;3.50;99.90;;;;;;5045647;28;20044;-81
2021/12/27 11:41:06;;;;;;;94.83;16.43;;;3.30;99.90;;;;;;5067507;28;20572;-80
2021/12/27 11:43:53;;;;;;;117.38;20.15;;;5.60;99.90;;;;;;5046478;28;20033;-81
2021/12/27 11:46:21;;;;;;;372.92;36.22;;;5.70;99.90;;;;;;5069029;28;20044;-79
2021/12/27 11:48:52;;;;;;;331.67;33.13;;;6.20;99.90;;;;;;5074804;28;20089;-80
2021/12/27 11:51:30;;;;;;;280.45;36.08;;;5.90;99.90;;;;;;5079806;28;20123;-80
2021/12/27 11:53:57;;;;;;;358.75;40.13;;;8.00;99.90;;;;;;5055066;28;20055;-81
2021/12/27 11:56:38;;;;;;;320.98;36.22;;;4.30;99.90;;;;;;5067423;28;20056;-80
2021/12/27 11:59:22;;;;;;;109.90;21.92;;;4.40;99.90;;;;;;5071137;28;20127;-80
2021/12/27 12:01:50;;;;;;;242.43;30.35;;;6.70;99.90;;;;;;5068787;28;20457;-82
2021/12/27 12:04:39;;;;;;;207.98;29.35;;;5.70;99.90;;;;;;5067204;28;20044;-80
2021/12/27 12:07:05;;;;;;;102.68;22.83;;;4.20;99.90;;;;;;5049844;28;20052;-81
2021/12/27 12:09:31;;;;;;;61.33;16.85;;;4.30;99.90;;;;;;5071027;28;20037;-83
2021/12/27 12:12:03;;;;;;;85.53;19.15;;;5.80;99.90;;;;;;5070818;28;20044;-84
2021/12/27 12:14:32;;;;;;;195.85;27.40;;;6.00;99.90;;;;;;5070914;28;20090;-81
2021/12/27 12:17:01;;;;;;;206.48;28.48;;;6.70;99.90;;;;;;5073257;28;20040;-83
2021/12/27 12:19:38;;;;;;;73.05;19.80;;;6.10;99.90;;;;;;5057112;28;20098;-84
2021/12/27 12:22:05;;;;;;;43.90;16.20;;;4.30;99.90;;;;;;5057643;28;20097;-83
2021/12/27 12:24:31;;;;;;;114.65;23.35;;;7.40;99.90;;;;;;5057983;28;20044;-82
2021/12/27 12:27:07;;;;;;;153.77;25.70;;;5.30;99.90;;;;;;5056564;28;20458;-83
2021/12/27 12:29:37;;;;;;;;;;;4.40;99.90;;;;;;5076315;28;20522;-84
2021/12/27 12:32:05;;;;;;;85.22;18.92;;;4.70;99.90;;;;;;5079116;28;19927;-83
2021/12/27 12:34:32;;;;;;;272.92;33.78;;;4.90;99.90;;;;;;5071930;28;20054;-83